createdAt,value
2022-10-29T00:00:45.792Z,101186.19
2022-10-29T00:03:12.504Z,101193.28
2022-10-29T00:05:39.220Z,101192.44
2022-10-29T00:08:05.945Z,101185.31
2022-10-29T00:10:32.846Z,101186.22
2022-10-29T00:13:03.713Z,101192.22
2022-10-29T00:15:30.329Z,101197.59
2022-10-29T00:17:57.110Z,101193.22
2022-10-29T00:20:26.577Z,101192.34
2022-10-29T00:22:54.365Z,101203.06
2022-10-29T00:25:21.517Z,101204.88
2022-10-29T00:27:51.212Z,101202.84
2022-10-29T00:30:17.998Z,101199.38
2022-10-29T00:32:44.738Z,101211.81
2022-10-29T00:35:11.578Z,101212.66
2022-10-29T00:37:38.232Z,101218.53
2022-10-29T00:40:11.644Z,101217.84
2022-10-29T00:42:38.291Z,101211.69
2022-10-29T00:45:05.404Z,101219.41
2022-10-29T00:47:34.661Z,101223.91
2022-10-29T00:50:06.389Z,101223.13
2022-10-29T00:52:34.414Z,101222.09
2022-10-29T00:55:03.982Z,101231.00
2022-10-29T00:57:35.651Z,101218.59
2022-10-29T01:00:02.483Z,101213.47
2022-10-29T01:02:29.783Z,101209.06
2022-10-29T01:04:56.507Z,101215.25
2022-10-29T01:07:23.224Z,101214.47
2022-10-29T01:09:50.210Z,101234.84
2022-10-29T01:12:35.042Z,101234.97
2022-10-29T01:15:38.813Z,101234.97
2022-10-29T01:18:24.430Z,101225.53
2022-10-29T01:21:09.487Z,101223.75
2022-10-29T01:24:01.580Z,101226.53
2022-10-29T01:26:30.924Z,101233.75
2022-10-29T01:29:25.871Z,101229.31
2022-10-29T01:31:56.305Z,101234.69
2022-10-29T01:34:27.766Z,101240.09
2022-10-29T01:37:01.833Z,101239.28
2022-10-29T01:39:36.857Z,101241.91
2022-10-29T01:42:12.664Z,101246.50
2022-10-29T01:44:48.525Z,101240.31
2022-10-29T01:47:23.912Z,101246.53
2022-10-29T01:49:59.134Z,101254.38
2022-10-29T01:52:27.542Z,101253.53
2022-10-29T01:54:54.169Z,101243.75
2022-10-29T01:57:38.697Z,101234.94
2022-10-29T02:00:08.682Z,101245.63
2022-10-29T02:03:12.547Z,101241.19
2022-10-29T02:05:54.569Z,101240.41
2022-10-29T02:08:33.161Z,101256.38
2022-10-29T02:11:07.712Z,101252.88
2022-10-29T02:13:38.379Z,101258.19
2022-10-29T02:16:09.289Z,101250.31
2022-10-29T02:18:44.095Z,101257.41
2022-10-29T02:21:18.335Z,101250.38
2022-10-29T02:23:45.176Z,101254.81
2022-10-29T02:26:12.334Z,101254.84
2022-10-29T02:28:39.148Z,101258.47
2022-10-29T02:31:05.858Z,101248.75
2022-10-29T02:33:35.312Z,101257.50
2022-10-29T02:36:04.232Z,101260.13
2022-10-29T02:38:30.944Z,101267.25
2022-10-29T02:40:59.111Z,101266.34
2022-10-29T02:43:25.691Z,101268.09
2022-10-29T02:46:10.621Z,101278.66
2022-10-29T02:48:37.181Z,101268.16
2022-10-29T02:51:03.793Z,101266.22
2022-10-29T02:53:30.372Z,101276.84
2022-10-29T02:55:56.971Z,101269.81
2022-10-29T02:58:25.709Z,101275.22
2022-10-29T03:00:52.816Z,101278.78
2022-10-29T03:03:19.391Z,101274.34
2022-10-29T03:05:49.013Z,101280.56
2022-10-29T03:08:16.202Z,101280.56
2022-10-29T03:10:42.934Z,101281.50
2022-10-29T03:13:09.531Z,101276.19
2022-10-29T03:15:39.101Z,101273.53
2022-10-29T03:18:05.958Z,101270.88
2022-10-29T03:20:34.215Z,101273.59
2022-10-29T03:23:01.079Z,101286.84
2022-10-29T03:25:27.736Z,101285.91
2022-10-29T03:27:54.607Z,101278.88
2022-10-29T03:30:21.435Z,101281.53
2022-10-29T03:32:48.968Z,101283.34
2022-10-29T03:35:16.201Z,101286.06
2022-10-29T03:37:43.009Z,101294.06
2022-10-29T03:40:10.116Z,101295.88
2022-10-29T03:42:41.166Z,101290.66
2022-10-29T03:45:11.265Z,101293.41
2022-10-29T03:47:38.053Z,101297.91
2022-10-29T03:50:05.092Z,101309.44
2022-10-29T03:52:31.681Z,101305.16
2022-10-29T03:54:58.274Z,101310.47
2022-10-29T03:57:27.926Z,101308.69
2022-10-29T03:59:54.704Z,101311.53
2022-10-29T04:02:21.555Z,101315.94
2022-10-29T04:04:48.438Z,101308.09
2022-10-29T04:07:15.183Z,101304.66
2022-10-29T04:09:41.783Z,101308.22
2022-10-29T04:12:09.126Z,101310.06
2022-10-29T04:14:37.244Z,101300.44
2022-10-29T04:17:05.561Z,101300.44
2022-10-29T04:19:32.174Z,101306.63
2022-10-29T04:25:26.864Z,101309.28
2022-10-29T04:30:19.460Z,101308.47
2022-10-29T04:32:46.090Z,101301.47
2022-10-29T04:35:12.701Z,101300.59
2022-10-29T04:37:39.317Z,101301.50
2022-10-29T04:40:06.593Z,101307.72
2022-10-29T04:42:39.913Z,101321.00
2022-10-29T04:45:07.735Z,101316.69
2022-10-29T04:47:34.408Z,101323.75
2022-10-29T04:50:01.003Z,101314.06
2022-10-29T04:52:27.603Z,101319.38
2022-10-29T04:54:54.203Z,101318.50
2022-10-29T04:57:20.884Z,101323.78
2022-10-29T04:59:47.518Z,101315.00
2022-10-29T05:02:14.107Z,101319.44
2022-10-29T05:04:40.774Z,101319.44
2022-10-29T05:07:07.350Z,101320.31
2022-10-29T05:09:34.037Z,101326.50
2022-10-29T05:12:00.661Z,101320.34
2022-10-29T05:14:27.283Z,101313.28
2022-10-29T05:16:53.980Z,101308.88
2022-10-29T05:19:20.619Z,101314.16
2022-10-29T05:21:47.246Z,101315.03
2022-10-29T05:24:13.946Z,101313.34
2022-10-29T05:26:40.572Z,101325.66
2022-10-29T05:29:07.178Z,101320.38
2022-10-29T05:31:33.748Z,101318.63
2022-10-29T05:34:00.348Z,101324.84
2022-10-29T05:36:27.097Z,101322.16
2022-10-29T05:38:53.753Z,101333.66
2022-10-29T05:41:20.378Z,101334.53
2022-10-29T05:43:50.421Z,101328.41
2022-10-29T05:46:17.026Z,101321.41
2022-10-29T05:48:43.618Z,101322.25
2022-10-29T05:51:10.258Z,101323.22
2022-10-29T05:53:36.919Z,101310.91
2022-10-29T05:56:03.696Z,101323.25
2022-10-29T05:58:30.365Z,101326.81
2022-10-29T06:00:57.042Z,101336.53
2022-10-29T06:03:23.674Z,101325.94
2022-10-29T06:05:50.917Z,101329.31
2022-10-29T06:08:18.047Z,101329.38
2022-10-29T06:10:44.954Z,101337.25
2022-10-29T06:13:16.478Z,101344.16
2022-10-29T06:15:43.081Z,101352.19
2022-10-29T06:18:09.831Z,101353.03
2022-10-29T06:20:37.646Z,101360.00
2022-10-29T06:23:04.325Z,101373.19
2022-10-29T06:25:30.948Z,101374.00
2022-10-29T06:28:05.946Z,101368.63
2022-10-29T06:30:33.908Z,101370.22
2022-10-29T06:33:01.154Z,101381.69
2022-10-29T06:35:28.212Z,101384.28
2022-10-29T06:37:55.503Z,101382.50
2022-10-29T06:40:22.839Z,101370.06
2022-10-29T06:42:49.481Z,101375.28
2022-10-29T06:45:16.099Z,101374.34
2022-10-29T06:47:44.363Z,101362.78
2022-10-29T06:50:12.770Z,101362.72
2022-10-29T06:52:39.526Z,101358.22
2022-10-29T06:55:07.459Z,101360.78
2022-10-29T06:57:34.323Z,101368.56
2022-10-29T07:00:05.555Z,101365.03
2022-10-29T07:02:35.250Z,101369.41
2022-10-29T07:05:01.862Z,101367.53
2022-10-29T07:07:28.831Z,101363.91
2022-10-29T07:09:55.502Z,101377.91
2022-10-29T07:12:22.121Z,101381.31
2022-10-29T07:14:48.711Z,101386.41
2022-10-29T07:17:15.460Z,101383.72
2022-10-29T07:19:42.041Z,101389.81
2022-10-29T07:22:08.610Z,101400.34
2022-10-29T07:24:35.203Z,101398.53
2022-10-29T07:27:02.120Z,101394.94
2022-10-29T07:29:28.753Z,101394.78
2022-10-29T07:31:55.611Z,101402.31
2022-10-29T07:34:22.233Z,101397.97
2022-10-29T07:36:48.839Z,101403.91
2022-10-29T07:39:15.511Z,101406.44
2022-10-29T07:41:42.091Z,101407.19
2022-10-29T07:44:08.763Z,101406.28
2022-10-29T07:46:35.350Z,101414.25
2022-10-29T07:49:02.110Z,101418.34
2022-10-29T07:51:28.816Z,101427.81
2022-10-29T07:53:55.443Z,101424.00
2022-10-29T07:56:22.029Z,101418.81
2022-10-29T07:58:48.676Z,101429.38
2022-10-29T08:01:15.401Z,101421.03
2022-10-29T08:03:42.213Z,101449.63
2022-10-29T08:06:11.991Z,101438.50
2022-10-29T08:08:38.626Z,101423.34
2022-10-29T08:11:05.336Z,101427.78
2022-10-29T08:13:32.193Z,101425.06
2022-10-29T08:15:58.857Z,101423.13
2022-10-29T08:18:25.452Z,101436.34
2022-10-29T08:20:52.088Z,101439.69
2022-10-29T08:23:18.868Z,101448.56
2022-10-29T08:25:45.532Z,101447.75
2022-10-29T08:28:15.540Z,101438.16
2022-10-29T08:30:44.149Z,101445.22
2022-10-29T08:33:11.314Z,101435.19
2022-10-29T08:35:37.959Z,101449.53
2022-10-29T08:38:04.593Z,101448.28
2022-10-29T08:40:50.585Z,101446.50
2022-10-29T08:43:35.423Z,101437.31
2022-10-29T08:46:02.354Z,101449.91
2022-10-29T08:48:46.457Z,101456.97
2022-10-29T08:51:13.480Z,101453.56
2022-10-29T08:53:45.356Z,101459.53
2022-10-29T08:56:18.590Z,101457.78
2022-10-29T08:58:53.270Z,101471.66
2022-10-29T09:01:22.672Z,101468.00
2022-10-29T09:03:50.617Z,101460.47
2022-10-29T09:06:36.061Z,101460.44
2022-10-29T09:09:13.641Z,101469.50
2022-10-29T09:12:18.102Z,101465.84
2022-10-29T09:14:47.593Z,101464.81
2022-10-29T09:17:23.443Z,101462.91
2022-10-29T09:20:23.288Z,101466.72
2022-10-29T09:23:08.137Z,101462.94
2022-10-29T09:25:39.992Z,101474.38
2022-10-29T09:28:22.262Z,101474.31
2022-10-29T09:31:00.823Z,101468.13
2022-10-29T09:33:27.772Z,101468.31
2022-10-29T09:35:56.450Z,101474.22
2022-10-29T09:38:35.240Z,101468.06
2022-10-29T09:41:03.222Z,101469.91
2022-10-29T09:43:39.153Z,101468.63
2022-10-29T09:46:20.781Z,101463.13
2022-10-29T09:49:15.181Z,101457.13
2022-10-29T09:51:47.507Z,101450.16
2022-10-29T09:54:14.217Z,101453.41
2022-10-29T09:56:42.596Z,101451.91
2022-10-29T09:59:18.820Z,101459.25
2022-10-29T10:01:47.400Z,101467.66
2022-10-29T10:04:21.755Z,101449.56
2022-10-29T10:07:01.710Z,101447.81
2022-10-29T10:09:28.400Z,101446.59
2022-10-29T10:11:58.905Z,101448.63
2022-10-29T10:14:27.430Z,101445.09
2022-10-29T10:16:58.295Z,101438.91
2022-10-29T10:19:27.679Z,101443.81
2022-10-29T10:22:02.436Z,101442.19
2022-10-29T10:24:30.526Z,101437.59
2022-10-29T10:26:57.156Z,101445.41
2022-10-29T10:29:25.152Z,101436.59
2022-10-29T10:31:57.639Z,101426.09
2022-10-29T10:34:26.344Z,101423.34
2022-10-29T10:36:56.044Z,101419.28
2022-10-29T10:39:31.941Z,101414.72
2022-10-29T10:42:01.038Z,101421.16
2022-10-29T10:44:28.159Z,101421.09
2022-10-29T10:46:56.140Z,101421.91
2022-10-29T10:49:36.063Z,101420.69
2022-10-29T10:52:12.080Z,101419.06
2022-10-29T10:54:42.097Z,101409.53
2022-10-29T10:57:11.806Z,101415.25
2022-10-29T10:59:41.889Z,101416.47
2022-10-29T11:02:20.862Z,101413.66
2022-10-29T11:04:50.223Z,101413.00
2022-10-29T11:07:17.658Z,101421.13
2022-10-29T11:09:50.210Z,101416.84
2022-10-29T11:12:31.617Z,101406.25
2022-10-29T11:15:18.807Z,101401.41
2022-10-29T11:17:54.517Z,101402.88
2022-10-29T11:20:28.243Z,101397.88
2022-10-29T11:23:02.622Z,101393.78
2022-10-29T11:26:00.431Z,101402.19
2022-10-29T11:28:50.407Z,101402.19
2022-10-29T11:31:36.509Z,101409.06
2022-10-29T11:34:26.597Z,101405.38
2022-10-29T11:37:30.773Z,101405.38
2022-10-29T11:40:01.893Z,101401.94
2022-10-29T11:42:28.580Z,101403.16
2022-10-29T11:44:58.366Z,101400.50
2022-10-29T11:47:39.240Z,101384.69
2022-10-29T11:50:11.968Z,101378.13
2022-10-29T11:52:44.386Z,101372.81
2022-10-29T11:55:13.884Z,101374.19
2022-10-29T11:58:05.079Z,101364.47
2022-10-29T12:00:55.935Z,101346.69
2022-10-29T12:03:28.722Z,101351.31
2022-10-29T12:06:01.417Z,101354.84
2022-10-29T12:08:30.892Z,101350.44
2022-10-29T12:11:12.477Z,101343.22
2022-10-29T12:14:03.148Z,101341.06
2022-10-29T12:16:41.684Z,101340.41
2022-10-29T12:19:45.850Z,101342.56
2022-10-29T12:22:17.114Z,101341.63
2022-10-29T12:24:49.847Z,101341.56
2022-10-29T12:27:22.974Z,101340.22
2022-10-29T12:29:54.684Z,101337.50
2022-10-29T12:32:37.913Z,101335.41
2022-10-29T12:35:16.126Z,101323.94
2022-10-29T12:37:50.127Z,101331.81
2022-10-29T12:40:24.965Z,101328.13
2022-10-29T12:42:52.457Z,101324.66
2022-10-29T12:45:48.047Z,101315.88
2022-10-29T12:48:47.321Z,101319.47
2022-10-29T12:51:32.756Z,101329.94
2022-10-29T12:54:17.142Z,101318.75
2022-10-29T12:56:49.464Z,101314.06
2022-10-29T12:59:35.037Z,101307.50
2022-10-29T13:02:19.439Z,101312.19
2022-10-29T13:05:05.957Z,101314.31
2022-10-29T13:07:33.653Z,101306.41
2022-10-29T13:10:22.428Z,101311.97
2022-10-29T13:12:55.118Z,101306.63
2022-10-29T13:15:23.383Z,101316.13
2022-10-29T13:17:51.578Z,101322.22
2022-10-29T13:20:25.386Z,101318.09
2022-10-29T13:22:53.209Z,101311.75
2022-10-29T13:25:38.091Z,101318.16
2022-10-29T13:28:07.664Z,101322.56
2022-10-29T13:30:35.858Z,101317.09
2022-10-29T13:33:27.904Z,101309.72
2022-10-29T13:36:00.679Z,101316.88
2022-10-29T13:38:52.385Z,101307.84
2022-10-29T13:41:42.039Z,101309.88
2022-10-29T13:44:19.694Z,101305.38
2022-10-29T13:46:53.094Z,101296.94
2022-10-29T13:49:23.807Z,101307.91
2022-10-29T13:51:54.710Z,101300.66
2022-10-29T13:54:32.407Z,101296.28
2022-10-29T13:57:29.137Z,101306.19
2022-10-29T13:59:59.393Z,101300.41
2022-10-29T14:02:53.263Z,101299.66
2022-10-29T14:05:23.885Z,101287.53
2022-10-29T14:08:15.112Z,101292.09
2022-10-29T14:10:41.647Z,101282.31
2022-10-29T14:13:23.585Z,101277.16
2022-10-29T14:16:08.834Z,101275.16
2022-10-29T14:18:43.914Z,101268.50
2022-10-29T14:21:22.306Z,101264.91
2022-10-29T14:24:01.801Z,101265.84
2022-10-29T14:26:30.289Z,101264.97
2022-10-29T14:28:56.992Z,101267.47
2022-10-29T14:31:25.261Z,101279.69
2022-10-29T14:33:54.131Z,101271.00
2022-10-29T14:36:30.772Z,101263.09
2022-10-29T14:39:04.371Z,101272.84
2022-10-29T14:41:31.636Z,101271.44
2022-10-29T14:44:11.359Z,101284.75
2022-10-29T14:46:38.940Z,101288.00
2022-10-29T14:49:13.922Z,101288.28
2022-10-29T14:51:47.126Z,101285.97
2022-10-29T14:54:19.787Z,101284.44
2022-10-29T14:56:49.079Z,101284.53
2022-10-29T14:59:20.465Z,101288.03
2022-10-29T15:01:56.742Z,101290.16
2022-10-29T15:04:29.811Z,101280.81
2022-10-29T15:07:28.699Z,101274.09
2022-10-29T15:10:21.160Z,101275.88
2022-10-29T15:12:48.361Z,101275.00
2022-10-29T15:15:21.577Z,101283.03
2022-10-29T15:17:49.804Z,101283.97
2022-10-29T15:20:22.897Z,101279.56
2022-10-29T15:22:54.546Z,101279.19
2022-10-29T15:25:34.576Z,101280.53
2022-10-29T15:28:01.612Z,101284.28
2022-10-29T15:30:33.149Z,101287.94
2022-10-29T15:33:01.136Z,101281.84
2022-10-29T15:35:28.089Z,101270.56
2022-10-29T15:37:55.423Z,101274.03
2022-10-29T15:40:23.360Z,101282.09
2022-10-29T15:42:50.132Z,101294.56
2022-10-29T15:45:28.247Z,101293.03
2022-10-29T15:48:36.037Z,101289.88
2022-10-29T15:51:04.088Z,101279.66
2022-10-29T15:53:30.700Z,101271.84
2022-10-29T15:55:58.201Z,101273.63
2022-10-29T15:58:25.681Z,101272.88
2022-10-29T16:00:52.742Z,101275.38
2022-10-29T16:03:21.825Z,101272.72
2022-10-29T16:06:01.408Z,101273.75
2022-10-29T16:08:40.304Z,101278.00
2022-10-29T16:11:14.719Z,101289.69
2022-10-29T16:13:42.382Z,101278.41
2022-10-29T16:16:18.523Z,101280.88
2022-10-29T16:18:53.099Z,101286.59
2022-10-29T16:21:26.413Z,101286.88
2022-10-29T16:23:56.139Z,101285.28
2022-10-29T16:26:26.706Z,101277.34
2022-10-29T16:28:54.694Z,101280.16
2022-10-29T16:31:26.744Z,101281.06
2022-10-29T16:33:58.427Z,101272.38
2022-10-29T16:36:29.476Z,101269.72
2022-10-29T16:38:57.213Z,101265.38
2022-10-29T16:41:24.155Z,101265.44
2022-10-29T16:43:51.073Z,101254.94
2022-10-29T16:46:17.876Z,101247.03
2022-10-29T16:48:45.724Z,101254.31
2022-10-29T16:51:12.498Z,101242.81
2022-10-29T16:53:39.309Z,101246.44
2022-10-29T16:56:06.686Z,101254.53
2022-10-29T16:58:37.282Z,101257.22
2022-10-29T17:01:07.550Z,101253.28
2022-10-29T17:03:37.960Z,101271.44
2022-10-29T17:06:11.101Z,101269.91
2022-10-29T17:08:45.801Z,101262.16
2022-10-29T17:11:17.167Z,101263.25
2022-10-29T17:13:48.066Z,101253.69
2022-10-29T17:16:18.588Z,101258.09
2022-10-29T17:18:51.560Z,101256.19
2022-10-29T17:21:19.118Z,101264.19
2022-10-29T17:23:45.745Z,101265.31
2022-10-29T17:26:12.382Z,101257.50
2022-10-29T17:28:39.700Z,101261.19
2022-10-29T17:31:09.345Z,101262.19
2022-10-29T17:33:36.087Z,101265.78
2022-10-29T17:36:04.335Z,101266.72
2022-10-29T17:38:30.939Z,101269.38
2022-10-29T17:40:57.977Z,101274.63
2022-10-29T17:43:24.623Z,101274.63
2022-10-29T17:45:59.919Z,101284.19
2022-10-29T17:48:27.135Z,101280.81
2022-10-29T17:51:01.641Z,101282.81
2022-10-29T17:53:29.894Z,101278.69
2022-10-29T17:56:00.477Z,101286.81
2022-10-29T17:58:27.799Z,101275.34
2022-10-29T18:00:58.123Z,101280.69
2022-10-29T18:03:27.959Z,101274.59
2022-10-29T18:06:03.704Z,101265.69
2022-10-29T18:08:32.380Z,101278.13
2022-10-29T18:11:05.622Z,101280.66
2022-10-29T18:13:41.182Z,101275.63
2022-10-29T18:16:09.647Z,101277.53
2022-10-29T18:18:48.239Z,101272.38
2022-10-29T18:21:25.909Z,101272.47
2022-10-29T18:23:56.229Z,101267.00
2022-10-29T18:26:31.473Z,101253.00
2022-10-29T18:28:59.647Z,101254.00
2022-10-29T18:31:28.521Z,101253.19
2022-10-29T18:33:55.250Z,101265.56
2022-10-29T18:36:21.895Z,101262.94
2022-10-29T18:38:52.977Z,101262.91
2022-10-29T18:41:23.497Z,101275.84
2022-10-29T18:43:51.068Z,101263.88
2022-10-29T18:46:18.468Z,101257.09
2022-10-29T18:48:47.200Z,101254.53
2022-10-29T18:51:24.408Z,101254.59
2022-10-29T18:53:54.487Z,101249.31
2022-10-29T18:56:22.502Z,101243.03
2022-10-29T18:58:49.710Z,101241.47
2022-10-29T19:01:20.033Z,101245.16
2022-10-29T19:03:59.396Z,101247.03
2022-10-29T19:06:28.328Z,101248.91
2022-10-29T19:08:55.543Z,101250.69
2022-10-29T19:11:25.946Z,101249.84
2022-10-29T19:13:56.929Z,101249.03
2022-10-29T19:16:24.433Z,101249.84
2022-10-29T19:21:38.151Z,101240.25
2022-10-29T19:24:05.251Z,101240.25
2022-10-29T19:26:33.954Z,101252.56
2022-10-29T19:29:02.155Z,101247.06
2022-10-29T19:31:30.575Z,101240.84
2022-10-29T19:34:03.005Z,101247.06
2022-10-29T19:36:30.471Z,101242.69
2022-10-29T19:38:57.618Z,101243.69
2022-10-29T19:41:24.591Z,101243.84
2022-10-29T19:43:51.984Z,101246.56
2022-10-29T19:46:25.815Z,101254.66
2022-10-29T19:48:59.297Z,101255.75
2022-10-29T19:51:27.652Z,101245.25
2022-10-29T19:53:58.791Z,101248.69
2022-10-29T19:56:25.947Z,101246.78
2022-10-29T19:58:55.313Z,101259.50
2022-10-29T20:01:22.778Z,101264.03
2022-10-29T20:03:49.934Z,101250.00
2022-10-29T20:06:17.832Z,101238.53
2022-10-29T20:08:45.200Z,101234.13
2022-10-29T20:11:15.858Z,101235.00
2022-10-29T20:13:43.893Z,101232.28
2022-10-29T20:16:18.214Z,101236.63
2022-10-29T20:18:48.091Z,101235.84
2022-10-29T20:21:20.781Z,101239.41
2022-10-29T20:23:49.221Z,101233.97
2022-10-29T20:26:19.187Z,101239.81
2022-10-29T20:28:47.012Z,101234.88
2022-10-29T20:31:17.680Z,101237.72
2022-10-29T20:33:55.961Z,101248.31
2022-10-29T20:36:24.472Z,101242.22
2022-10-29T20:38:52.369Z,101250.19
2022-10-29T20:41:19.459Z,101245.78
2022-10-29T20:43:46.603Z,101247.69
2022-10-29T20:46:15.928Z,101252.97
2022-10-29T20:48:42.588Z,101245.94
2022-10-29T20:51:12.879Z,101249.41
2022-10-29T20:53:39.470Z,101249.47
2022-10-29T20:56:09.145Z,101240.66
2022-10-29T20:58:38.307Z,101238.03
2022-10-29T21:01:13.454Z,101248.69
2022-10-29T21:03:42.456Z,101247.78
2022-10-29T21:06:15.690Z,101247.84
2022-10-29T21:08:44.027Z,101244.38
2022-10-29T21:11:12.747Z,101239.91
2022-10-29T21:13:40.101Z,101240.84
2022-10-29T21:16:11.360Z,101239.03
2022-10-29T21:18:42.470Z,101243.50
2022-10-29T21:21:09.692Z,101231.09
2022-10-29T21:23:40.140Z,101234.75
2022-10-29T21:26:09.690Z,101228.59
2022-10-29T21:28:36.714Z,101228.59
2022-10-29T21:31:04.088Z,101223.34
2022-10-29T21:33:33.429Z,101217.13
2022-10-29T21:36:00.458Z,101214.47
2022-10-29T21:38:28.017Z,101227.78
2022-10-29T21:40:55.676Z,101225.97
2022-10-29T21:43:23.130Z,101226.66
2022-10-29T21:45:51.175Z,101225.09
2022-10-29T21:48:21.732Z,101219.91
2022-10-29T21:51:01.406Z,101223.47
2022-10-29T21:53:32.630Z,101225.25
2022-10-29T21:56:03.412Z,101219.09
2022-10-29T21:58:30.597Z,101212.19
2022-10-29T22:01:06.452Z,101204.25
2022-10-29T22:03:34.831Z,101195.41
2022-10-29T22:06:15.345Z,101203.34
2022-10-29T22:08:42.811Z,101190.09
2022-10-29T22:11:10.013Z,101201.50
2022-10-29T22:13:38.998Z,101219.25
2022-10-29T22:16:07.237Z,101234.25
2022-10-29T22:18:34.258Z,101237.81
2022-10-29T22:21:11.580Z,101236.94
2022-10-29T22:23:45.292Z,101221.03
2022-10-29T22:26:12.577Z,101219.31
2022-10-29T22:28:39.201Z,101215.81
2022-10-29T22:31:07.403Z,101220.25
2022-10-29T22:33:34.835Z,101215.03
2022-10-29T22:36:16.152Z,101218.63
2022-10-29T22:38:43.230Z,101215.16
2022-10-29T22:41:15.209Z,101209.81
2022-10-29T22:43:42.826Z,101203.75
2022-10-29T22:46:10.240Z,101202.97
2022-10-29T22:48:36.875Z,101210.00
2022-10-29T22:51:05.981Z,101203.91
2022-10-29T22:53:34.014Z,101216.22
2022-10-29T22:56:01.982Z,101211.97
2022-10-29T22:58:28.941Z,101214.72
2022-10-29T23:01:02.875Z,101215.75
2022-10-29T23:03:29.607Z,101228.19
2022-10-29T23:05:57.702Z,101226.41
2022-10-29T23:08:24.768Z,101228.22
2022-10-29T23:10:51.501Z,101228.19
2022-10-29T23:13:20.662Z,101228.19
2022-10-29T23:15:51.334Z,101234.41
2022-10-29T23:18:20.823Z,101231.88
2022-10-29T23:20:47.529Z,101220.41
2022-10-29T23:23:17.119Z,101220.38
2022-10-29T23:25:43.979Z,101217.78
2022-10-29T23:28:11.098Z,101214.09
2022-10-29T23:30:37.673Z,101208.03
2022-10-29T23:33:04.290Z,101217.75
2022-10-29T23:35:30.935Z,101213.34
2022-10-29T23:37:57.816Z,101221.38
2022-10-29T23:40:24.546Z,101222.25
2022-10-29T23:42:51.190Z,101215.09
2022-10-29T23:45:18.299Z,101213.44
2022-10-29T23:47:44.963Z,101210.81
2022-10-29T23:50:11.578Z,101215.28
2022-10-29T23:52:38.189Z,101198.56
2022-10-29T23:55:07.485Z,101202.13
2022-10-29T23:57:35.465Z,101205.69
